sensor_id;sensor_type;location;lat;lon;timestamp;pressure;altitude;pressure_sealevel;temperature;humidity
4085;BME280;2057;50.858;6.572;2023-05-21T00:01:41;100438.44;;;14.43;97.95
4085;BME280;2057;50.858;6.572;2023-05-21T00:04:06;100432.50;;;14.44;97.52
4085;BME280;2057;50.858;6.572;2023-05-21T00:06:35;100429.13;;;14.46;97.98
4085;BME280;2057;50.858;6.572;2023-05-21T00:09:02;100427.31;;;14.41;97.61
4085;BME280;2057;50.858;6.572;2023-05-21T00:11:27;100429.63;;;14.35;98.28
4085;BME280;2057;50.858;6.572;2023-05-21T00:13:53;100426.34;;;14.38;98.56
4085;BME280;2057;50.858;6.572;2023-05-21T00:16:18;100423.81;;;14.39;98.22
4085;BME280;2057;50.858;6.572;2023-05-21T00:18:43;100426.25;;;14.36;98.20
4085;BME280;2057;50.858;6.572;2023-05-21T00:21:09;100420.19;;;14.33;98.28
4085;BME280;2057;50.858;6.572;2023-05-21T00:23:34;100418.53;;;14.33;98.24
4085;BME280;2057;50.858;6.572;2023-05-21T00:26:01;100414.28;;;14.34;98.91
4085;BME280;2057;50.858;6.572;2023-05-21T00:28:27;100417.91;;;14.40;98.44
4085;BME280;2057;50.858;6.572;2023-05-21T00:30:52;100415.16;;;14.34;99.22
4085;BME280;2057;50.858;6.572;2023-05-21T00:33:17;100416.94;;;14.37;100.00
4085;BME280;2057;50.858;6.572;2023-05-21T00:35:46;100409.31;;;14.38;100.00
4085;BME280;2057;50.858;6.572;2023-05-21T00:38:12;100405.22;;;14.43;100.00
4085;BME280;2057;50.858;6.572;2023-05-21T00:40:38;100402.59;;;14.42;99.71
4085;BME280;2057;50.858;6.572;2023-05-21T00:43:05;100401.66;;;14.38;99.65
4085;BME280;2057;50.858;6.572;2023-05-21T00:45:32;100403.28;;;14.36;100.00
4085;BME280;2057;50.858;6.572;2023-05-21T00:47:57;100410.75;;;14.30;100.00
4085;BME280;2057;50.858;6.572;2023-05-21T00:50:23;100413.31;;;14.30;100.00
4085;BME280;2057;50.858;6.572;2023-05-21T00:52:50;100408.84;;;14.24;100.00
4085;BME280;2057;50.858;6.572;2023-05-21T00:55:15;100413.31;;;14.30;99.86
4085;BME280;2057;50.858;6.572;2023-05-21T00:57:41;100398.72;;;14.26;100.00
4085;BME280;2057;50.858;6.572;2023-05-21T01:00:07;100395.13;;;14.21;100.00
4085;BME280;2057;50.858;6.572;2023-05-21T01:02:34;100400.22;;;14.21;100.00
4085;BME280;2057;50.858;6.572;2023-05-21T01:05:01;100405.84;;;14.10;100.00
4085;BME280;2057;50.858;6.572;2023-05-21T01:07:28;100401.22;;;13.99;100.00
4085;BME280;2057;50.858;6.572;2023-05-21T01:09:54;100407.59;;;13.86;100.00
4085;BME280;2057;50.858;6.572;2023-05-21T01:12:19;100407.41;;;13.81;100.00
4085;BME280;2057;50.858;6.572;2023-05-21T01:14:45;100402.31;;;13.81;100.00
4085;BME280;2057;50.858;6.572;2023-05-21T01:17:11;100399.72;;;13.79;100.00
4085;BME280;2057;50.858;6.572;2023-05-21T01:19:37;100403.50;;;13.65;100.00
4085;BME280;2057;50.858;6.572;2023-05-21T01:22:06;100401.84;;;13.67;100.00
4085;BME280;2057;50.858;6.572;2023-05-21T01:24:32;100397.78;;;13.72;100.00
4085;BME280;2057;50.858;6.572;2023-05-21T01:26:59;100395.38;;;13.77;100.00
4085;BME280;2057;50.858;6.572;2023-05-21T01:29:24;100397.06;;;13.76;100.00
4085;BME280;2057;50.858;6.572;2023-05-21T01:35:01;100382.78;;;13.82;100.00
4085;BME280;2057;50.858;6.572;2023-05-21T01:37:30;100387.56;;;13.72;100.00
4085;BME280;2057;50.858;6.572;2023-05-21T01:40:04;100377.44;;;13.75;100.00
4085;BME280;2057;50.858;6.572;2023-05-21T01:42:33;100385.91;;;13.74;100.00
4085;BME280;2057;50.858;6.572;2023-05-21T01:45:01;100385.63;;;13.65;100.00
4085;BME280;2057;50.858;6.572;2023-05-21T01:47:30;100381.72;;;13.51;100.00
4085;BME280;2057;50.858;6.572;2023-05-21T01:49:56;100381.50;;;13.44;100.00
4085;BME280;2057;50.858;6.572;2023-05-21T01:52:23;100378.94;;;13.44;100.00
4085;BME280;2057;50.858;6.572;2023-05-21T01:54:48;100373.84;;;13.44;100.00
4085;BME280;2057;50.858;6.572;2023-05-21T01:57:16;100376.41;;;13.44;100.00
4085;BME280;2057;50.858;6.572;2023-05-21T01:59:41;100378.03;;;13.42;100.00
4085;BME280;2057;50.858;6.572;2023-05-21T02:02:08;100376.09;;;13.37;100.00
4085;BME280;2057;50.858;6.572;2023-05-21T02:04:33;100373.91;;;13.46;100.00
4085;BME280;2057;50.858;6.572;2023-05-21T02:06:59;100377.41;;;13.49;100.00
4085;BME280;2057;50.858;6.572;2023-05-21T02:09:24;100375.00;;;13.53;100.00
4085;BME280;2057;50.858;6.572;2023-05-21T02:11:50;100376.06;;;13.59;100.00
4085;BME280;2057;50.858;6.572;2023-05-21T02:14:15;100373.28;;;13.53;100.00
4085;BME280;2057;50.858;6.572;2023-05-21T02:16:40;100374.69;;;13.45;100.00
4085;BME280;2057;50.858;6.572;2023-05-21T02:19:06;100373.09;;;13.47;100.00
4085;BME280;2057;50.858;6.572;2023-05-21T02:21:34;100374.13;;;13.52;100.00
4085;BME280;2057;50.858;6.572;2023-05-21T02:24:00;100372.59;;;13.57;100.00
4085;BME280;2057;50.858;6.572;2023-05-21T02:26:25;100365.06;;;13.60;100.00
4085;BME280;2057;50.858;6.572;2023-05-21T02:28:52;100355.81;;;13.64;100.00
4085;BME280;2057;50.858;6.572;2023-05-21T02:31:18;100362.34;;;13.56;100.00
4085;BME280;2057;50.858;6.572;2023-05-21T02:33:43;100355.75;;;13.62;100.00
4085;BME280;2057;50.858;6.572;2023-05-21T02:36:08;100358.25;;;13.61;100.00
4085;BME280;2057;50.858;6.572;2023-05-21T02:38:40;100353.16;;;13.61;100.00
4085;BME280;2057;50.858;6.572;2023-05-21T02:41:08;100360.59;;;13.55;100.00
4085;BME280;2057;50.858;6.572;2023-05-21T02:43:33;100364.56;;;13.46;100.00
4085;BME280;2057;50.858;6.572;2023-05-21T02:45:59;100361.41;;;13.54;100.00
4085;BME280;2057;50.858;6.572;2023-05-21T02:48:24;100360.44;;;13.50;100.00
4085;BME280;2057;50.858;6.572;2023-05-21T02:50:50;100360.44;;;13.27;100.00
4085;BME280;2057;50.858;6.572;2023-05-21T02:53:15;100355.94;;;13.20;100.00
4085;BME280;2057;50.858;6.572;2023-05-21T02:55:40;100354.75;;;13.10;100.00
4085;BME280;2057;50.858;6.572;2023-05-21T02:58:06;100359.53;;;13.01;100.00
4085;BME280;2057;50.858;6.572;2023-05-21T03:00:31;100351.81;;;12.99;100.00
4085;BME280;2057;50.858;6.572;2023-05-21T03:02:57;100352.81;;;13.03;100.00
4085;BME280;2057;50.858;6.572;2023-05-21T03:05:22;100349.19;;;12.98;100.00
4085;BME280;2057;50.858;6.572;2023-05-21T03:07:48;100342.28;;;12.94;100.00
4085;BME280;2057;50.858;6.572;2023-05-21T03:10:14;100342.34;;;12.97;100.00
4085;BME280;2057;50.858;6.572;2023-05-21T03:12:39;100344.91;;;12.97;100.00
4085;BME280;2057;50.858;6.572;2023-05-21T03:15:05;100340.53;;;12.93;100.00
4085;BME280;2057;50.858;6.572;2023-05-21T03:17:30;100339.91;;;12.98;100.00
4085;BME280;2057;50.858;6.572;2023-05-21T03:19:56;100347.59;;;13.00;100.00
4085;BME280;2057;50.858;6.572;2023-05-21T03:22:21;100343.25;;;12.97;100.00
4085;BME280;2057;50.858;6.572;2023-05-21T03:24:46;100346.91;;;13.04;100.00
4085;BME280;2057;50.858;6.572;2023-05-21T03:27:12;100343.38;;;13.00;100.00
4085;BME280;2057;50.858;6.572;2023-05-21T03:29:38;100340.06;;;13.03;100.00
4085;BME280;2057;50.858;6.572;2023-05-21T03:32:04;100336.53;;;12.99;100.00
4085;BME280;2057;50.858;6.572;2023-05-21T03:34:30;100341.84;;;13.06;100.00
4085;BME280;2057;50.858;6.572;2023-05-21T03:36:58;100346.06;;;13.05;100.00
4085;BME280;2057;50.858;6.572;2023-05-21T03:39:24;100345.03;;;13.00;100.00
4085;BME280;2057;50.858;6.572;2023-05-21T03:41:49;100346.81;;;13.02;100.00
4085;BME280;2057;50.858;6.572;2023-05-21T03:44:14;100346.47;;;12.93;100.00
4085;BME280;2057;50.858;6.572;2023-05-21T03:46:40;100345.75;;;12.96;100.00
4085;BME280;2057;50.858;6.572;2023-05-21T03:49:06;100342.19;;;12.92;100.00
4085;BME280;2057;50.858;6.572;2023-05-21T03:51:31;100342.47;;;13.00;100.00
4085;BME280;2057;50.858;6.572;2023-05-21T03:53:57;100341.84;;;13.06;100.00
4085;BME280;2057;50.858;6.572;2023-05-21T03:56:23;100352.41;;;13.16;100.00
4085;BME280;2057;50.858;6.572;2023-05-21T03:58:48;100349.78;;;13.13;100.00
4085;BME280;2057;50.858;6.572;2023-05-21T04:01:14;100345.97;;;13.02;100.00
4085;BME280;2057;50.858;6.572;2023-05-21T04:03:39;100348.03;;;13.12;100.00
4085;BME280;2057;50.858;6.572;2023-05-21T04:06:04;100354.59;;;13.06;100.00
4085;BME280;2057;50.858;6.572;2023-05-21T04:08:30;100359.19;;;12.92;100.00
4085;BME280;2057;50.858;6.572;2023-05-21T04:10:56;100352.56;;;12.97;100.00
4085;BME280;2057;50.858;6.572;2023-05-21T04:13:21;100357.78;;;13.00;100.00
4085;BME280;2057;50.858;6.572;2023-05-21T04:15:47;100355.88;;;12.94;100.00
4085;BME280;2057;50.858;6.572;2023-05-21T04:18:12;100363.59;;;12.96;100.00
4085;BME280;2057;50.858;6.572;2023-05-21T04:20:40;100358.81;;;12.82;100.00
4085;BME280;2057;50.858;6.572;2023-05-21T04:23:05;100365.78;;;12.86;100.00
4085;BME280;2057;50.858;6.572;2023-05-21T04:25:31;100364.69;;;12.80;100.00
4085;BME280;2057;50.858;6.572;2023-05-21T04:27:56;100366.59;;;12.85;100.00
4085;BME280;2057;50.858;6.572;2023-05-21T04:30:22;100366.34;;;12.79;100.00
4085;BME280;2057;50.858;6.572;2023-05-21T04:32:48;100367.28;;;12.81;100.00
4085;BME280;2057;50.858;6.572;2023-05-21T04:35:14;100364.91;;;12.86;100.00
4085;BME280;2057;50.858;6.572;2023-05-21T04:37:39;100368.50;;;12.91;100.00
4085;BME280;2057;50.858;6.572;2023-05-21T04:40:08;100354.63;;;12.83;100.00
4085;BME280;2057;50.858;6.572;2023-05-21T04:42:34;100356.06;;;12.76;100.00
4085;BME280;2057;50.858;6.572;2023-05-21T04:45:00;100353.50;;;12.76;100.00
4085;BME280;2057;50.858;6.572;2023-05-21T04:47:25;100353.28;;;12.70;100.00
4085;BME280;2057;50.858;6.572;2023-05-21T04:49:50;100354.38;;;12.77;100.00
4085;BME280;2057;50.858;6.572;2023-05-21T04:52:17;100358.03;;;12.83;100.00
4085;BME280;2057;50.858;6.572;2023-05-21T04:54:42;100355.94;;;12.73;100.00
4085;BME280;2057;50.858;6.572;2023-05-21T04:57:09;100352.34;;;12.68;100.00
4085;BME280;2057;50.858;6.572;2023-05-21T04:59:35;100354.19;;;12.72;100.00
4085;BME280;2057;50.858;6.572;2023-05-21T05:02:00;100352.22;;;12.87;100.00
4085;BME280;2057;50.858;6.572;2023-05-21T05:04:26;100355.69;;;12.90;100.00
4085;BME280;2057;50.858;6.572;2023-05-21T05:06:51;100353.84;;;12.85;100.00
4085;BME280;2057;50.858;6.572;2023-05-21T05:09:17;100348.69;;;12.84;100.00
4085;BME280;2057;50.858;6.572;2023-05-21T05:11:45;100352.13;;;12.84;100.00
4085;BME280;2057;50.858;6.572;2023-05-21T05:14:10;100349.41;;;12.80;100.00
4085;BME280;2057;50.858;6.572;2023-05-21T05:16:36;100345.28;;;12.83;100.00
4085;BME280;2057;50.858;6.572;2023-05-21T05:19:02;100340.94;;;12.81;100.00
4085;BME280;2057;50.858;6.572;2023-05-21T05:21:27;100351.53;;;12.92;100.00
4085;BME280;2057;50.858;6.572;2023-05-21T05:23:52;100346.59;;;12.96;100.00
4085;BME280;2057;50.858;6.572;2023-05-21T05:26:18;100345.63;;;12.93;100.00
4085;BME280;2057;50.858;6.572;2023-05-21T05:28:43;100343.53;;;12.82;100.00
4085;BME280;2057;50.858;6.572;2023-05-21T05:31:10;100337.50;;;12.80;100.00
4085;BME280;2057;50.858;6.572;2023-05-21T05:33:35;100345.66;;;12.94;100.00
4085;BME280;2057;50.858;6.572;2023-05-21T05:36:01;100341.63;;;12.99;100.00
4085;BME280;2057;50.858;6.572;2023-05-21T05:38:26;100339.25;;;13.04;100.00
4085;BME280;2057;50.858;6.572;2023-05-21T05:40:51;100328.22;;;13.05;100.00
4085;BME280;2057;50.858;6.572;2023-05-21T05:43:17;100343.03;;;13.15;100.00
4085;BME280;2057;50.858;6.572;2023-05-21T05:45:42;100346.63;;;13.21;100.00
4085;BME280;2057;50.858;6.572;2023-05-21T05:48:07;100343.56;;;13.31;100.00
4085;BME280;2057;50.858;6.572;2023-05-21T05:50:33;100351.31;;;13.32;100.00
4085;BME280;2057;50.858;6.572;2023-05-21T05:52:58;100355.50;;;13.32;100.00
4085;BME280;2057;50.858;6.572;2023-05-21T05:55:23;100361.59;;;13.36;100.00
4085;BME280;2057;50.858;6.572;2023-05-21T05:57:50;100360.69;;;13.33;100.00
4085;BME280;2057;50.858;6.572;2023-05-21T06:00:19;100359.84;;;13.10;100.00
4085;BME280;2057;50.858;6.572;2023-05-21T06:02:44;100358.56;;;13.22;100.00
4085;BME280;2057;50.858;6.572;2023-05-21T06:05:10;100357.66;;;13.20;100.00
4085;BME280;2057;50.858;6.572;2023-05-21T06:07:38;100354.63;;;13.30;100.00
4085;BME280;2057;50.858;6.572;2023-05-21T06:10:06;100355.69;;;13.37;100.00
4085;BME280;2057;50.858;6.572;2023-05-21T06:12:31;100358.31;;;13.38;100.00
4085;BME280;2057;50.858;6.572;2023-05-21T06:14:57;100360.69;;;13.33;100.00
4085;BME280;2057;50.858;6.572;2023-05-21T06:17:22;100359.13;;;13.37;100.00
4085;BME280;2057;50.858;6.572;2023-05-21T06:19:48;100363.13;;;13.30;100.00
4085;BME280;2057;50.858;6.572;2023-05-21T06:22:13;100362.53;;;13.38;100.00
4085;BME280;2057;50.858;6.572;2023-05-21T06:24:38;100366.47;;;13.29;100.00
4085;BME280;2057;50.858;6.572;2023-05-21T06:27:04;100361.50;;;13.32;100.00
4085;BME280;2057;50.858;6.572;2023-05-21T06:29:30;100367.56;;;13.36;100.00
4085;BME280;2057;50.858;6.572;2023-05-21T06:31:55;100363.16;;;13.32;100.00
4085;BME280;2057;50.858;6.572;2023-05-21T06:34:20;100362.03;;;13.24;100.00
4085;BME280;2057;50.858;6.572;2023-05-21T06:36:46;100355.94;;;13.20;100.00
4085;BME280;2057;50.858;6.572;2023-05-21T06:39:12;100359.03;;;13.36;100.00
4085;BME280;2057;50.858;6.572;2023-05-21T06:41:37;100352.84;;;13.52;100.00
4085;BME280;2057;50.858;6.572;2023-05-21T06:44:03;100348.53;;;13.51;100.00
4085;BME280;2057;50.858;6.572;2023-05-21T06:46:29;100351.09;;;13.51;100.00
4085;BME280;2057;50.858;6.572;2023-05-21T06:48:54;100347.94;;;13.58;100.00
4085;BME280;2057;50.858;6.572;2023-05-21T06:51:20;100348.56;;;13.76;100.00
4085;BME280;2057;50.858;6.572;2023-05-21T06:53:45;100346.75;;;13.72;100.00
4085;BME280;2057;50.858;6.572;2023-05-21T06:56:11;100348.50;;;13.73;100.00
4085;BME280;2057;50.858;6.572;2023-05-21T06:58:37;100346.44;;;13.63;100.00
4085;BME280;2057;50.858;6.572;2023-05-21T07:01:02;100349.63;;;13.82;100.00
4085;BME280;2057;50.858;6.572;2023-05-21T07:03:27;100357.66;;;13.94;100.00
4085;BME280;2057;50.858;6.572;2023-05-21T07:05:53;100353.06;;;13.84;100.00
4085;BME280;2057;50.858;6.572;2023-05-21T07:08:18;100357.09;;;14.03;100.00
4085;BME280;2057;50.858;6.572;2023-05-21T07:10:44;100347.94;;;14.09;100.00
4085;BME280;2057;50.858;6.572;2023-05-21T07:13:11;100358.56;;;14.22;100.00
4085;BME280;2057;50.858;6.572;2023-05-21T07:15:36;100360.81;;;14.12;100.00
4085;BME280;2057;50.858;6.572;2023-05-21T07:18:02;100358.25;;;14.12;100.00
4085;BME280;2057;50.858;6.572;2023-05-21T07:20:30;100364.44;;;14.19;100.00
4085;BME280;2057;50.858;6.572;2023-05-21T07:22:59;100367.84;;;14.20;100.00
4085;BME280;2057;50.858;6.572;2023-05-21T07:25:25;100368.47;;;14.12;100.00
4085;BME280;2057;50.858;6.572;2023-05-21T07:27:50;100367.47;;;14.35;100.00
4085;BME280;2057;50.858;6.572;2023-05-21T07:30:15;100368.72;;;14.48;100.00
4085;BME280;2057;50.858;6.572;2023-05-21T07:32:41;100367.56;;;14.65;100.00
4085;BME280;2057;50.858;6.572;2023-05-21T07:35:07;100370.09;;;14.93;100.00
4085;BME280;2057;50.858;6.572;2023-05-21T07:37:32;100373.06;;;15.06;100.00
4085;BME280;2057;50.858;6.572;2023-05-21T07:39:58;100375.34;;;14.97;100.00
4085;BME280;2057;50.858;6.572;2023-05-21T07:42:24;100369.59;;;15.04;100.00
4085;BME280;2057;50.858;6.572;2023-05-21T07:44:49;100367.63;;;14.96;100.00
4085;BME280;2057;50.858;6.572;2023-05-21T07:47:15;100374.34;;;14.92;100.00
4085;BME280;2057;50.858;6.572;2023-05-21T07:49:40;100370.94;;;15.22;100.00
4085;BME280;2057;50.858;6.572;2023-05-21T07:52:06;100365.50;;;15.42;100.00
4085;BME280;2057;50.858;6.572;2023-05-21T07:54:31;100366.03;;;15.30;99.56
4085;BME280;2057;50.858;6.572;2023-05-21T07:56:56;100370.94;;;15.22;100.00
4085;BME280;2057;50.858;6.572;2023-05-21T07:59:24;100359.22;;;15.62;100.00
4085;BME280;2057;50.858;6.572;2023-05-21T08:01:50;100364.84;;;15.81;99.69
4085;BME280;2057;50.858;6.572;2023-05-21T08:04:15;100350.75;;;15.97;98.53
4085;BME280;2057;50.858;6.572;2023-05-21T08:06:41;100357.66;;;15.99;97.76
4085;BME280;2057;50.858;6.572;2023-05-21T08:09:06;100354.31;;;16.04;97.18
4085;BME280;2057;50.858;6.572;2023-05-21T08:11:32;100350.94;;;16.05;97.79
4085;BME280;2057;50.858;6.572;2023-05-21T08:13:58;100357.34;;;16.22;97.08
4085;BME280;2057;50.858;6.572;2023-05-21T08:16:23;100352.09;;;16.18;96.54
4085;BME280;2057;50.858;6.572;2023-05-21T08:18:49;100363.00;;;15.77;98.14
4085;BME280;2057;50.858;6.572;2023-05-21T08:21:15;100356.34;;;15.82;97.15
4085;BME280;2057;50.858;6.572;2023-05-21T08:23:41;100351.50;;;15.93;97.08
4085;BME280;2057;50.858;6.572;2023-05-21T08:26:06;100352.47;;;15.98;97.85
4085;BME280;2057;50.858;6.572;2023-05-21T08:28:32;100342.00;;;15.89;97.86
4085;BME280;2057;50.858;6.572;2023-05-21T08:30:59;100342.88;;;15.89;97.61
4085;BME280;2057;50.858;6.572;2023-05-21T08:33:25;100341.16;;;15.88;98.16
4085;BME280;2057;50.858;6.572;2023-05-21T08:35:51;100345.47;;;15.91;98.38
4085;BME280;2057;50.858;6.572;2023-05-21T08:38:16;100340.16;;;16.18;97.19
4085;BME280;2057;50.858;6.572;2023-05-21T08:40:42;100336.44;;;16.42;96.48
4085;BME280;2057;50.858;6.572;2023-05-21T08:43:07;100342.53;;;16.49;95.63
4085;BME280;2057;50.858;6.572;2023-05-21T08:45:40;100347.16;;;16.63;95.06
4085;BME280;2057;50.858;6.572;2023-05-21T08:48:07;100342.31;;;16.76;95.30
4085;BME280;2057;50.858;6.572;2023-05-21T08:50:34;100347.94;;;16.59;94.44
4085;BME280;2057;50.858;6.572;2023-05-21T08:53:00;100347.16;;;16.63;94.99
4085;BME280;2057;50.858;6.572;2023-05-21T08:55:25;100349.47;;;16.92;93.56
4085;BME280;2057;50.858;6.572;2023-05-21T08:57:52;100340.81;;;16.87;93.15
4085;BME280;2057;50.858;6.572;2023-05-21T09:00:18;100348.56;;;16.90;92.65
4085;BME280;2057;50.858;6.572;2023-05-21T09:02:45;100349.38;;;16.88;92.38
4085;BME280;2057;50.858;6.572;2023-05-21T09:05:11;100352.16;;;16.97;93.14
4085;BME280;2057;50.858;6.572;2023-05-21T09:07:49;100343.66;;;17.00;92.93
4085;BME280;2057;50.858;6.572;2023-05-21T09:10:22;100346.44;;;17.11;94.03
4085;BME280;2057;50.858;6.572;2023-05-21T09:12:48;100344.50;;;16.99;94.21
4085;BME280;2057;50.858;6.572;2023-05-21T09:15:13;100337.34;;;17.27;92.99
4085;BME280;2057;50.858;6.572;2023-05-21T09:17:39;100341.19;;;17.03;91.61
4085;BME280;2057;50.858;6.572;2023-05-21T09:22:41;100332.44;;;17.39;92.72
4085;BME280;2057;50.858;6.572;2023-05-21T09:25:08;100333.91;;;17.26;91.75
4085;BME280;2057;50.858;6.572;2023-05-21T09:27:35;100339.38;;;17.43;90.97
4085;BME280;2057;50.858;6.572;2023-05-21T09:30:06;100337.03;;;17.55;91.66
4085;BME280;2057;50.858;6.572;2023-05-21T09:32:33;100331.25;;;17.69;90.03
4085;BME280;2057;50.858;6.572;2023-05-21T09:35:08;100332.41;;;17.85;89.59
4085;BME280;2057;50.858;6.572;2023-05-21T09:37:42;100337.09;;;17.60;90.32
4085;BME280;2057;50.858;6.572;2023-05-21T09:42:41;100325.31;;;18.24;89.28
4085;BME280;2057;50.858;6.572;2023-05-21T09:45:08;100334.28;;;18.52;88.49
4085;BME280;2057;50.858;6.572;2023-05-21T09:47:39;100325.81;;;18.58;87.68
4085;BME280;2057;50.858;6.572;2023-05-21T09:50:06;100319.44;;;18.32;87.27
4085;BME280;2057;50.858;6.572;2023-05-21T09:52:35;100321.53;;;18.60;86.04
4085;BME280;2057;50.858;6.572;2023-05-21T09:55:02;100318.22;;;18.67;87.09
4085;BME280;2057;50.858;6.572;2023-05-21T09:57:28;100319.94;;;18.68;85.87
4085;BME280;2057;50.858;6.572;2023-05-21T09:59:53;100311.97;;;18.49;87.29
4085;BME280;2057;50.858;6.572;2023-05-21T10:02:20;100309.41;;;18.51;85.69
4085;BME280;2057;50.858;6.572;2023-05-21T10:04:47;100313.66;;;18.47;86.81
4085;BME280;2057;50.858;6.572;2023-05-21T10:07:18;100306.09;;;18.58;87.17
4085;BME280;2057;50.858;6.572;2023-05-21T10:09:52;100306.91;;;18.56;86.60
4085;BME280;2057;50.858;6.572;2023-05-21T10:12:20;100307.69;;;18.50;86.24
4085;BME280;2057;50.858;6.572;2023-05-21T10:14:50;100304.72;;;18.85;86.69
4085;BME280;2057;50.858;6.572;2023-05-21T10:17:18;100298.88;;;18.97;84.80
4085;BME280;2057;50.858;6.572;2023-05-21T10:19:45;100289.56;;;19.07;84.48
4085;BME280;2057;50.858;6.572;2023-05-21T10:22:12;100293.53;;;18.83;84.69
4085;BME280;2057;50.858;6.572;2023-05-21T10:24:39;100299.22;;;19.31;86.18
4085;BME280;2057;50.858;6.572;2023-05-21T10:27:06;100290.13;;;19.67;82.92
4085;BME280;2057;50.858;6.572;2023-05-21T10:29:32;100288.63;;;19.93;81.28
4085;BME280;2057;50.858;6.572;2023-05-21T10:31:59;100287.81;;;20.03;82.99
4085;BME280;2057;50.858;6.572;2023-05-21T10:34:26;100286.22;;;20.17;80.65
4085;BME280;2057;50.858;6.572;2023-05-21T10:36:53;100282.81;;;20.23;79.92
4085;BME280;2057;50.858;6.572;2023-05-21T10:39:20;100290.66;;;20.43;78.40
4085;BME280;2057;50.858;6.572;2023-05-21T10:41:54;100285.47;;;20.37;80.03
4085;BME280;2057;50.858;6.572;2023-05-21T10:44:35;100262.03;;;19.95;81.42
4085;BME280;2057;50.858;6.572;2023-05-21T10:52:59;100279.69;;;19.50;80.14
4085;BME280;2057;50.858;6.572;2023-05-21T10:55:35;100270.25;;;19.51;82.45
4085;BME280;2057;50.858;6.572;2023-05-21T11:01:02;100262.56;;;19.55;81.76
4085;BME280;2057;50.858;6.572;2023-05-21T11:03:28;100266.91;;;19.64;83.36
4085;BME280;2057;50.858;6.572;2023-05-21T11:05:55;100261.09;;;19.88;81.27
4085;BME280;2057;50.858;6.572;2023-05-21T11:08:28;100251.06;;;20.30;79.77
4085;BME280;2057;50.858;6.572;2023-05-21T11:11:00;100252.72;;;20.17;81.31
4085;BME280;2057;50.858;6.572;2023-05-21T11:13:26;100247.69;;;20.48;79.77
4085;BME280;2057;50.858;6.572;2023-05-21T11:21:14;100238.03;;;20.05;80.94
4085;BME280;2057;50.858;6.572;2023-05-21T11:26:18;100240.75;;;20.38;81.59
4085;BME280;2057;50.858;6.572;2023-05-21T11:28:44;100226.31;;;20.71;80.09
4085;BME280;2057;50.858;6.572;2023-05-21T11:31:25;100239.03;;;20.29;80.45
4085;BME280;2057;50.858;6.572;2023-05-21T11:36:45;100225.50;;;20.91;79.83
4085;BME280;2057;50.858;6.572;2023-05-21T11:39:15;100228.81;;;20.54;78.09
4085;BME280;2057;50.858;6.572;2023-05-21T11:41:57;100227.16;;;20.70;79.73
4085;BME280;2057;50.858;6.572;2023-05-21T11:44:43;100225.47;;;20.81;78.67
4085;BME280;2057;50.858;6.572;2023-05-21T11:47:10;100227.25;;;20.89;79.56
4085;BME280;2057;50.858;6.572;2023-05-21T11:49:37;100227.16;;;20.73;79.75
4085;BME280;2057;50.858;6.572;2023-05-21T11:52:04;100230.47;;;20.43;79.34
4085;BME280;2057;50.858;6.572;2023-05-21T11:54:31;100231.56;;;21.07;80.71
4085;BME280;2057;50.858;6.572;2023-05-21T11:56:58;100230.75;;;21.45;79.20
4085;BME280;2057;50.858;6.572;2023-05-21T11:59:24;100232.44;;;21.20;79.45
4085;BME280;2057;50.858;6.572;2023-05-21T12:01:50;100229.00;;;21.42;77.00
4085;BME280;2057;50.858;6.572;2023-05-21T12:04:15;100230.72;;;21.28;77.17
4085;BME280;2057;50.858;6.572;2023-05-21T12:06:44;100231.56;;;21.56;77.28
4085;BME280;2057;50.858;6.572;2023-05-21T12:09:10;100229.88;;;21.86;75.91
4085;BME280;2057;50.858;6.572;2023-05-21T12:11:39;100224.72;;;21.71;74.34
4085;BME280;2057;50.858;6.572;2023-05-21T12:14:11;100226.44;;;21.30;76.78
4085;BME280;2057;50.858;6.572;2023-05-21T12:16:38;100225.53;;;21.94;76.09
4085;BME280;2057;50.858;6.572;2023-05-21T12:19:04;100224.59;;;22.20;73.93
4085;BME280;2057;50.858;6.572;2023-05-21T12:21:30;100232.28;;;22.37;73.92
4085;BME280;2057;50.858;6.572;2023-05-21T12:23:55;100220.28;;;22.27;72.50
4085;BME280;2057;50.858;6.572;2023-05-21T12:26:22;100223.63;;;22.55;73.22
4085;BME280;2057;50.858;6.572;2023-05-21T12:28:54;100226.09;;;22.77;70.98
4085;BME280;2057;50.858;6.572;2023-05-21T12:31:21;100227.78;;;22.87;71.95
4085;BME280;2057;50.858;6.572;2023-05-21T12:33:50;100215.50;;;23.21;70.57
4085;BME280;2057;50.858;6.572;2023-05-21T12:36:26;100213.09;;;22.93;69.87
4085;BME280;2057;50.858;6.572;2023-05-21T12:38:52;100215.50;;;23.22;69.91
4085;BME280;2057;50.858;6.572;2023-05-21T12:41:19;100219.00;;;23.10;69.00
4085;BME280;2057;50.858;6.572;2023-05-21T12:43:46;100217.00;;;23.49;69.18
4085;BME280;2057;50.858;6.572;2023-05-21T12:46:12;100207.38;;;23.59;70.60
4085;BME280;2057;50.858;6.572;2023-05-21T12:48:39;100215.03;;;23.76;69.12
4085;BME280;2057;50.858;6.572;2023-05-21T12:51:07;100210.66;;;23.80;67.90
4085;BME280;2057;50.858;6.572;2023-05-21T12:53:36;100204.81;;;23.58;68.80
4085;BME280;2057;50.858;6.572;2023-05-21T12:56:12;100206.47;;;23.68;66.80
4085;BME280;2057;50.858;6.572;2023-05-21T12:58:39;100197.13;;;23.48;68.19
4085;BME280;2057;50.858;6.572;2023-05-21T13:01:09;100199.47;;;23.73;67.94
4085;BME280;2057;50.858;6.572;2023-05-21T13:03:36;100205.50;;;23.78;67.67
4085;BME280;2057;50.858;6.572;2023-05-21T13:06:01;100206.53;;;23.60;67.53
4085;BME280;2057;50.858;6.572;2023-05-21T13:08:27;100208.19;;;23.69;66.83
4085;BME280;2057;50.858;6.572;2023-05-21T13:10:53;100199.47;;;23.76;67.32
4085;BME280;2057;50.858;6.572;2023-05-21T13:13:18;100204.34;;;24.07;67.25
4085;BME280;2057;50.858;6.572;2023-05-21T13:15:43;100191.47;;;23.98;68.11
4085;BME280;2057;50.858;6.572;2023-05-21T13:18:09;100189.34;;;24.33;65.66
4085;BME280;2057;50.858;6.572;2023-05-21T13:20:36;100186.38;;;24.61;65.62
4085;BME280;2057;50.858;6.572;2023-05-21T13:23:02;100189.88;;;24.58;63.97
4085;BME280;2057;50.858;6.572;2023-05-21T13:25:29;100184.69;;;24.58;63.60
4085;BME280;2057;50.858;6.572;2023-05-21T13:28:00;100186.50;;;24.51;64.46
4085;BME280;2057;50.858;6.572;2023-05-21T13:30:26;100185.31;;;24.75;64.13